Time,TemperatureF,DewpointF,PressureIn,WindDirection,WindDirectionDegrees,WindSpeedMPH,WindSpeedGustMPH,Humidity,HourlyPrecipIn,Conditions,Clouds,dailyrainin,SoftwareType,DateUTC
2013-10-10 00:00:00,77.9,73.4,29.97,ESE,111,1.0,1.0,86,0.00,,,0.00,Wunderground v.1.15,2013-10-10 04:00:00,
2013-10-10 00:04:00,77.8,73.3,29.97,NE,43,1.0,1.0,86,0.00,,,0.00,Wunderground v.1.15,2013-10-10 04:04:00,
2013-10-10 00:09:00,77.7,73.2,29.97,ENE,67,1.0,2.0,86,0.00,,,0.00,Wunderground v.1.15,2013-10-10 04:09:00,
2013-10-10 00:14:00,77.6,73.4,29.97,ENE,68,0.0,-999.0,87,0.00,,,0.02,Wunderground v.1.15,2013-10-10 04:14:00,
2013-10-10 00:15:00,77.6,73.4,29.97,ENE,64,1.0,2.0,87,0.00,,,0.00,Wunderground v.1.15,2013-10-10 04:15:00,
2013-10-10 00:19:00,77.6,73.4,29.97,ENE,68,1.0,-999.0,87,0.00,,,0.02,Wunderground v.1.15,2013-10-10 04:19:00,
2013-10-10 00:20:00,77.6,73.4,29.97,ENE,76,1.0,1.0,87,0.00,,,0.00,Wunderground v.1.15,2013-10-10 04:20:00,
2013-10-10 00:24:00,77.5,73.3,29.97,ENE,68,0.0,-999.0,87,0.00,,,0.02,Wunderground v.1.15,2013-10-10 04:24:00,
2013-10-10 00:29:00,77.5,73.3,29.98,NNE,22,1.0,1.0,87,0.00,,,0.00,Wunderground v.1.15,2013-10-10 04:29:00,
2013-10-10 00:34:00,77.5,73.3,29.97,ENE,68,1.0,-999.0,87,0.00,,,0.02,Wunderground v.1.15,2013-10-10 04:34:00,
2013-10-10 00:39:00,77.5,73.3,29.97,ENE,72,2.0,2.0,87,0.00,,,0.00,Wunderground v.1.15,2013-10-10 04:39:00,
2013-10-10 00:45:00,77.6,73.4,29.97,East,86,2.0,2.0,87,0.00,,,0.00,Wunderground v.1.15,2013-10-10 04:45:00,
2013-10-10 00:49:00,77.6,73.4,29.97,ENE,68,1.0,-999.0,87,0.00,,,0.02,Wunderground v.1.15,2013-10-10 04:49:00,
2013-10-10 00:54:00,77.5,73.3,29.97,ENE,68,2.0,-999.0,87,0.00,,,0.02,Wunderground v.1.15,2013-10-10 04:54:00,
2013-10-10 00:55:00,77.5,73.3,29.97,East,84,2.0,4.0,87,0.00,,,0.00,Wunderground v.1.15,2013-10-10 04:55:00,
2013-10-10 00:59:00,77.5,73.3,29.97,ENE,68,2.0,-999.0,87,0.00,,,0.02,Wunderground v.1.15,2013-10-10 04:59:00,
2013-10-10 01:00:00,77.5,73.3,29.97,ENE,64,2.0,2.0,87,0.00,,,0.00,Wunderground v.1.15,2013-10-10 05:00:00,
2013-10-10 01:04:00,77.5,73.3,29.97,ENE,68,2.0,-999.0,87,0.00,,,0.02,Wunderground v.1.15,2013-10-10 05:04:00,
2013-10-10 01:09:00,77.5,73.7,29.97,ENE,72,2.0,2.0,88,0.00,,,0.00,Wunderground v.1.15,2013-10-10 05:09:00,
2013-10-10 01:14:00,77.5,73.7,29.97,ENE,68,2.0,-999.0,88,0.00,,,0.02,Wunderground v.1.15,2013-10-10 05:14:00,
2013-10-10 01:15:00,77.5,73.7,29.97,East,95,2.0,2.0,88,0.00,,,0.00,Wunderground v.1.15,2013-10-10 05:15:00,
2013-10-10 01:19:00,77.5,73.7,29.97,ENE,68,1.0,-999.0,88,0.00,,,0.02,Wunderground v.1.15,2013-10-10 05:19:00,
2013-10-10 01:24:00,77.4,73.9,29.97,ENE,67,2.0,4.0,89,0.00,,,0.00,Wunderground v.1.15,2013-10-10 05:24:00,
2013-10-10 01:29:00,77.2,73.7,29.97,ENE,68,3.0,-999.0,89,0.00,,,0.02,Wunderground v.1.15,2013-10-10 05:29:00,
2013-10-10 01:34:00,77.1,73.9,29.97,East,79,3.0,3.0,90,0.00,,,0.00,Wunderground v.1.15,2013-10-10 05:34:00,
2013-10-10 01:39:00,77.1,73.9,29.97,ENE,68,2.0,-999.0,90,0.00,,,0.02,Wunderground v.1.15,2013-10-10 05:39:00,
2013-10-10 01:40:00,77.1,73.9,29.97,ENE,75,2.0,2.0,90,0.00,,,0.00,Wunderground v.1.15,2013-10-10 05:40:00,
2013-10-10 01:44:00,77.1,74.3,29.97,ENE,68,2.0,-999.0,91,0.00,,,0.02,Wunderground v.1.15,2013-10-10 05:44:00,
2013-10-10 01:49:00,76.9,74.1,29.97,ENE,68,2.0,-999.0,91,0.00,,,0.02,Wunderground v.1.15,2013-10-10 05:49:00,
2013-10-10 01:50:00,77.0,74.2,29.97,East,83,2.0,2.0,91,0.00,,,0.00,Wunderground v.1.15,2013-10-10 05:50:00,
2013-10-10 01:54:00,76.9,74.1,29.97,ENE,68,1.0,-999.0,91,0.00,,,0.02,Wunderground v.1.15,2013-10-10 05:54:00,
2013-10-10 01:55:00,76.9,74.1,29.97,WSW,254,1.0,2.0,91,0.00,,,0.00,Wunderground v.1.15,2013-10-10 05:55:00,
2013-10-10 01:59:00,76.8,74.0,29.97,NE,45,1.0,-999.0,91,0.00,,,0.02,Wunderground v.1.15,2013-10-10 05:59:00,
2013-10-10 02:00:00,76.8,74.0,29.97,ENE,67,1.0,1.0,91,0.00,,,0.00,Wunderground v.1.15,2013-10-10 06:00:00,
2013-10-10 02:04:00,76.7,73.9,29.96,ENE,68,1.0,-999.0,91,0.00,,,0.02,Wunderground v.1.15,2013-10-10 06:04:00,
2013-10-10 02:09:00,76.5,73.7,29.97,ENE,68,1.0,-999.0,91,0.00,,,0.02,Wunderground v.1.15,2013-10-10 06:09:00,
2013-10-10 02:10:00,76.6,73.8,29.97,ENE,70,1.0,2.0,91,0.00,,,0.00,Wunderground v.1.15,2013-10-10 06:10:00,
2013-10-10 02:14:00,76.4,73.6,29.97,ENE,68,1.0,-999.0,91,0.00,,,0.02,Wunderground v.1.15,2013-10-10 06:14:00,
2013-10-10 02:19:00,76.4,73.6,29.97,ENE,61,1.0,2.0,91,0.00,,,0.00,Wunderground v.1.15,2013-10-10 06:19:00,
2013-10-10 02:24:00,76.5,73.7,29.97,ENE,68,1.0,-999.0,91,0.00,,,0.02,Wunderground v.1.15,2013-10-10 06:24:00,
2013-10-10 02:25:00,76.5,73.7,29.97,ENE,75,1.0,2.0,91,0.00,,,0.00,Wunderground v.1.15,2013-10-10 06:25:00,
2013-10-10 02:29:00,76.5,73.7,29.97,ENE,68,1.0,-999.0,91,0.00,,,0.02,Wunderground v.1.15,2013-10-10 06:29:00,
2013-10-10 02:35:00,76.4,73.6,29.97,ENE,77,1.0,1.0,91,0.00,,,0.00,Wunderground v.1.15,2013-10-10 06:35:00,
2013-10-10 02:39:00,76.4,73.6,29.97,ENE,68,1.0,-999.0,91,0.01,,,0.02,Wunderground v.1.15,2013-10-10 06:39:00,
2013-10-10 02:44:00,76.4,73.6,29.97,ENE,58,1.0,1.0,91,0.00,,,0.01,Wunderground v.1.15,2013-10-10 06:44:00,
2013-10-10 02:49:00,76.4,73.9,29.96,N/A,-737280,0.0,-999.0,92,0.01,,,0.02,Wunderground v.1.15,2013-10-10 06:49:00,
2013-10-10 02:54:00,76.3,73.8,29.96,ENE,67,0.0,1.0,92,0.06,,,0.02,Wunderground v.1.15,2013-10-10 06:54:00,
2013-10-10 02:59:00,76.2,73.7,29.96,ENE,68,2.0,-999.0,92,0.02,,,0.02,Wunderground v.1.15,2013-10-10 06:59:00,
2013-10-10 03:00:00,76.2,73.7,29.96,ENE,74,1.0,2.0,92,0.06,,,0.02,Wunderground v.1.15,2013-10-10 07:00:00,
2013-10-10 03:04:00,76.1,73.6,29.96,ENE,68,2.0,-999.0,92,0.02,,,0.02,Wunderground v.1.15,2013-10-10 07:04:00,
2013-10-10 03:09:00,76.2,73.7,29.96,ENE,67,2.0,2.0,92,0.00,,,0.02,Wunderground v.1.15,2013-10-10 07:09:00,
2013-10-10 03:14:00,76.3,74.1,29.96,ENE,68,1.0,-999.0,93,0.02,,,0.02,Wunderground v.1.15,2013-10-10 07:14:00,
2013-10-10 03:15:00,76.3,74.1,29.96,ENE,64,1.0,2.0,93,0.00,,,0.02,Wunderground v.1.15,2013-10-10 07:15:00,
2013-10-10 03:19:00,76.2,73.7,29.96,N/A,-737280,0.0,-999.0,92,0.02,,,0.02,Wunderground v.1.15,2013-10-10 07:19:00,
2013-10-10 03:24:00,76.0,73.5,29.96,ENE,60,0.0,0.0,92,0.00,,,0.02,Wunderground v.1.15,2013-10-10 07:24:00,
2013-10-10 03:29:00,75.8,73.6,29.96,N/A,-737280,0.0,-999.0,93,0.02,,,0.02,Wunderground v.1.15,2013-10-10 07:29:00,
2013-10-10 03:34:00,75.7,73.5,29.95,North,352,0.0,0.0,93,0.00,,,0.02,Wunderground v.1.15,2013-10-10 07:34:00,
2013-10-10 03:39:00,75.6,73.4,29.95,N/A,-737280,0.0,-999.0,93,0.01,,,0.02,Wunderground v.1.15,2013-10-10 07:39:00,
2013-10-10 03:44:00,75.5,73.3,29.95,N/A,-737280,0.0,-999.0,93,0.01,,,0.02,Wunderground v.1.15,2013-10-10 07:44:00,
2013-10-10 03:45:00,75.5,73.3,29.95,North,353,0.0,0.0,93,0.00,,,0.02,Wunderground v.1.15,2013-10-10 07:45:00,
2013-10-10 03:49:00,75.4,73.2,29.95,N/A,-737280,0.0,-999.0,93,0.01,,,0.02,Wunderground v.1.15,2013-10-10 07:49:00,
2013-10-10 03:54:00,75.2,73.0,29.95,N/A,-737280,0.0,-999.0,93,0.00,,,0.02,Wunderground v.1.15,2013-10-10 07:54:00,
2013-10-10 03:55:00,75.2,73.0,29.95,North,353,0.0,0.0,93,0.00,,,0.02,Wunderground v.1.15,2013-10-10 07:55:00,
2013-10-10 03:59:00,75.1,73.3,29.95,N/A,-737280,0.0,-999.0,94,0.00,,,0.02,Wunderground v.1.15,2013-10-10 07:59:00,
2013-10-10 04:00:00,75.1,73.3,29.95,North,353,0.0,0.0,94,0.00,,,0.02,Wunderground v.1.15,2013-10-10 08:00:00,
2013-10-10 04:04:00,75.0,73.2,29.95,N/A,-737280,0.0,-999.0,94,0.00,,,0.02,Wunderground v.1.15,2013-10-10 08:04:00,
2013-10-10 04:09:00,75.0,73.2,29.95,North,352,0.0,0.0,94,0.00,,,0.02,Wunderground v.1.15,2013-10-10 08:09:00,
2013-10-10 04:14:00,74.9,73.1,29.95,N/A,-737280,0.0,-999.0,94,0.00,,,0.02,Wunderground v.1.15,2013-10-10 08:14:00,
2013-10-10 04:19:00,74.9,73.1,29.95,North,353,0.0,0.0,94,0.00,,,0.02,Wunderground v.1.15,2013-10-10 08:19:00,
2013-10-10 04:24:00,74.8,73.0,29.95,N/A,-737280,0.0,-999.0,94,0.00,,,0.02,Wunderground v.1.15,2013-10-10 08:24:00,
2013-10-10 04:25:00,74.8,73.0,29.95,North,352,0.0,0.0,94,0.00,,,0.02,Wunderground v.1.15,2013-10-10 08:25:00,
2013-10-10 04:29:00,74.7,72.9,29.95,N/A,-737280,0.0,-999.0,94,0.00,,,0.02,Wunderground v.1.15,2013-10-10 08:29:00,
2013-10-10 04:34:00,74.6,72.8,29.95,N/A,-737280,0.0,-999.0,94,0.00,,,0.02,Wunderground v.1.15,2013-10-10 08:34:00,
2013-10-10 04:35:00,74.6,72.8,29.95,NNW,330,0.0,0.0,94,0.00,,,0.02,Wunderground v.1.15,2013-10-10 08:35:00,
2013-10-10 04:39:00,74.5,72.7,29.95,N/A,-737280,0.0,-999.0,94,0.00,,,0.02,Wunderground v.1.15,2013-10-10 08:39:00,
2013-10-10 04:44:00,74.4,72.6,29.95,NW,309,0.0,0.0,94,0.00,,,0.02,Wunderground v.1.15,2013-10-10 08:44:00,
2013-10-10 04:49:00,74.3,72.5,29.95,N/A,-737280,0.0,-999.0,94,0.00,,,0.02,Wunderground v.1.15,2013-10-10 08:49:00,
2013-10-10 04:54:00,74.2,72.7,29.95,NW,309,0.0,0.0,95,0.00,,,0.02,Wunderground v.1.15,2013-10-10 08:54:00,
2013-10-10 04:59:00,74.2,72.7,29.95,N/A,-737280,0.0,-999.0,95,0.00,,,0.02,Wunderground v.1.15,2013-10-10 08:59:00,
2013-10-10 05:00:00,74.2,72.7,29.95,NW,309,0.0,0.0,95,0.00,,,0.02,Wunderground v.1.15,2013-10-10 09:00:00,
2013-10-10 05:04:00,74.2,72.7,29.95,N/A,-737280,0.0,-999.0,95,0.00,,,0.02,Wunderground v.1.15,2013-10-10 09:04:00,
2013-10-10 05:09:00,74.1,72.6,29.95,NW,309,0.0,0.0,95,0.00,,,0.02,Wunderground v.1.15,2013-10-10 09:09:00,
2013-10-10 05:14:00,74.0,72.5,29.94,N/A,-737280,0.0,-999.0,95,0.00,,,0.02,Wunderground v.1.15,2013-10-10 09:14:00,
2013-10-10 05:15:00,74.1,72.6,29.94,NW,309,0.0,0.0,95,0.00,,,0.02,Wunderground v.1.15,2013-10-10 09:15:00,
2013-10-10 05:19:00,74.0,72.5,29.94,N/A,-737280,0.0,-999.0,95,0.00,,,0.02,Wunderground v.1.15,2013-10-10 09:19:00,
2013-10-10 05:24:00,73.9,72.4,29.94,NW,309,0.0,0.0,95,0.00,,,0.02,Wunderground v.1.15,2013-10-10 09:24:00,
2013-10-10 05:29:00,73.8,72.3,29.95,N/A,-737280,0.0,-999.0,95,0.00,,,0.02,Wunderground v.1.15,2013-10-10 09:29:00,
2013-10-10 05:34:00,73.7,72.2,29.95,NW,309,0.0,0.0,95,0.00,,,0.02,Wunderground v.1.15,2013-10-10 09:34:00,
2013-10-10 05:39:00,73.7,72.2,29.95,N/A,-737280,0.0,-999.0,95,0.00,,,0.02,Wunderground v.1.15,2013-10-10 09:39:00,
2013-10-10 05:40:00,73.7,72.2,29.95,NW,309,0.0,0.0,95,0.00,,,0.02,Wunderground v.1.15,2013-10-10 09:40:00,
2013-10-10 05:44:00,73.7,72.2,29.95,N/A,-737280,0.0,-999.0,95,0.00,,,0.02,Wunderground v.1.15,2013-10-10 09:44:00,
2013-10-10 05:49:00,73.6,72.1,29.95,N/A,-737280,0.0,-999.0,95,0.00,,,0.02,Wunderground v.1.15,2013-10-10 09:49:00,
2013-10-10 05:50:00,73.6,72.1,29.95,NW,309,0.0,0.0,95,0.00,,,0.02,Wunderground v.1.15,2013-10-10 09:50:00,
2013-10-10 05:54:00,73.6,72.1,29.95,N/A,-737280,0.0,-999.0,95,0.00,,,0.02,Wunderground v.1.15,2013-10-10 09:54:00,
2013-10-10 05:59:00,73.6,72.1,29.95,N/A,-737280,0.0,-999.0,95,0.00,,,0.02,Wunderground v.1.15,2013-10-10 09:59:00,
2013-10-10 06:00:00,73.6,72.1,29.95,NE,36,0.0,0.0,95,0.00,,,0.02,Wunderground v.1.15,2013-10-10 10:00:00,
2013-10-10 06:04:00,73.6,72.1,29.95,N/A,-737280,0.0,-999.0,95,0.00,,,0.02,Wunderground v.1.15,2013-10-10 10:04:00,
2013-10-10 06:09:00,73.6,72.1,29.96,NE,35,0.0,0.0,95,0.00,,,0.02,Wunderground v.1.15,2013-10-10 10:09:00,
2013-10-10 06:14:00,73.5,72.0,29.96,N/A,-737280,0.0,-999.0,95,0.00,,,0.02,Wunderground v.1.15,2013-10-10 10:14:00,
2013-10-10 06:19:00,73.4,71.9,29.96,N/A,-737280,0.0,-999.0,95,0.00,,,0.02,Wunderground v.1.15,2013-10-10 10:19:00,
2013-10-10 06:20:00,73.4,71.9,29.96,NE,35,0.0,0.0,95,0.00,,,0.02,Wunderground v.1.15,2013-10-10 10:20:00,
2013-10-10 06:24:00,73.4,72.2,29.96,N/A,-737280,0.0,-999.0,96,0.00,,,0.02,Wunderground v.1.15,2013-10-10 10:24:00,
2013-10-10 06:29:00,73.4,72.2,29.96,N/A,-737280,0.0,-999.0,96,0.00,,,0.02,Wunderground v.1.15,2013-10-10 10:29:00,
2013-10-10 06:30:00,73.4,72.2,29.96,ENE,60,0.0,0.0,96,0.00,,,0.02,Wunderground v.1.15,2013-10-10 10:30:00,
2013-10-10 06:34:00,73.4,71.9,29.96,ENE,68,0.0,-999.0,95,0.00,,,0.02,Wunderground v.1.15,2013-10-10 10:34:00,
2013-10-10 06:39:00,73.4,71.9,29.95,North,11,0.0,0.0,95,0.00,,,0.02,Wunderground v.1.15,2013-10-10 10:39:00,
2013-10-10 06:44:00,73.3,71.8,29.95,ENE,68,0.0,-999.0,95,0.00,,,0.02,Wunderground v.1.15,2013-10-10 10:44:00,
2013-10-10 06:49:00,73.3,71.8,29.95,ENE,76,0.0,1.0,95,0.00,,,0.02,Wunderground v.1.15,2013-10-10 10:49:00,
2013-10-10 06:54:00,73.3,71.8,29.96,ENE,68,0.0,-999.0,95,0.00,,,0.02,Wunderground v.1.15,2013-10-10 10:54:00,
2013-10-10 06:55:00,73.3,71.8,29.96,ENE,64,0.0,1.0,95,0.00,,,0.02,Wunderground v.1.15,2013-10-10 10:55:00,
2013-10-10 06:59:00,73.2,71.7,29.96,NE,45,0.0,-999.0,95,0.00,,,0.02,Wunderground v.1.15,2013-10-10 10:59:00,
2013-10-10 07:00:00,73.2,71.7,29.96,ENE,76,0.0,0.0,95,0.00,,,0.02,Wunderground v.1.15,2013-10-10 11:00:00,
2013-10-10 07:04:00,73.2,71.7,29.96,N/A,-737280,0.0,-999.0,95,0.00,,,0.02,Wunderground v.1.15,2013-10-10 11:04:00,
2013-10-10 07:09:00,73.2,71.7,29.96,ENE,68,0.0,-999.0,95,0.00,,,0.02,Wunderground v.1.15,2013-10-10 11:09:00,
2013-10-10 07:10:00,73.2,71.7,29.96,ENE,69,0.0,3.0,95,0.00,,,0.02,Wunderground v.1.15,2013-10-10 11:10:00,
2013-10-10 07:14:00,73.2,71.7,29.96,ENE,68,0.0,-999.0,95,0.00,,,0.02,Wunderground v.1.15,2013-10-10 11:14:00,
2013-10-10 07:19:00,73.2,71.7,29.96,ENE,64,0.0,0.0,95,0.00,,,0.02,Wunderground v.1.15,2013-10-10 11:19:00,
2013-10-10 07:24:00,73.2,71.7,29.96,ENE,68,0.0,-999.0,95,0.00,,,0.02,Wunderground v.1.15,2013-10-10 11:24:00,
2013-10-10 07:29:00,73.2,71.7,29.96,ENE,64,0.0,0.0,95,0.00,,,0.02,Wunderground v.1.15,2013-10-10 11:29:00,
2013-10-10 07:34:00,73.2,71.7,29.96,NE,45,0.0,-999.0,95,0.00,,,0.02,Wunderground v.1.15,2013-10-10 11:34:00,
2013-10-10 07:35:00,73.2,71.7,29.96,NW,314,0.0,0.0,95,0.00,,,0.02,Wunderground v.1.15,2013-10-10 11:35:00,
2013-10-10 07:39:00,73.2,71.7,29.97,N/A,-737280,0.0,-999.0,95,0.00,,,0.02,Wunderground v.1.15,2013-10-10 11:39:00,
2013-10-10 07:44:00,73.2,71.7,29.96,ENE,68,0.0,-999.0,95,0.00,,,0.02,Wunderground v.1.15,2013-10-10 11:44:00,
2013-10-10 07:45:00,73.2,71.7,29.96,ENE,73,0.0,0.0,95,0.00,,,0.02,Wunderground v.1.15,2013-10-10 11:45:00,
2013-10-10 07:49:00,73.3,71.8,29.96,ENE,68,0.0,-999.0,95,0.00,,,0.02,Wunderground v.1.15,2013-10-10 11:49:00,
2013-10-10 07:54:00,73.4,71.9,29.96,ENE,72,0.0,0.0,95,0.00,,,0.02,Wunderground v.1.15,2013-10-10 11:54:00,
2013-10-10 07:59:00,73.7,72.2,29.96,N/A,-737280,0.0,-999.0,95,0.00,,,0.02,Wunderground v.1.15,2013-10-10 11:59:00,
2013-10-10 08:00:00,73.7,72.2,29.97,ENE,78,0.0,0.0,95,0.00,,,0.02,Wunderground v.1.15,2013-10-10 12:00:00,
2013-10-10 08:04:00,73.9,72.4,29.97,N/A,-737280,0.0,-999.0,95,0.00,,,0.02,Wunderground v.1.15,2013-10-10 12:04:00,
2013-10-10 08:09:00,74.1,72.3,29.97,ENE,76,0.0,0.0,94,0.00,,,0.02,Wunderground v.1.15,2013-10-10 12:09:00,
2013-10-10 08:14:00,74.3,72.5,29.97,ENE,68,1.0,-999.0,94,0.00,,,0.02,Wunderground v.1.15,2013-10-10 12:14:00,
2013-10-10 08:15:00,74.3,72.5,29.97,ENE,72,0.0,0.0,94,0.00,,,0.02,Wunderground v.1.15,2013-10-10 12:15:00,
2013-10-10 08:19:00,74.7,72.9,29.97,ENE,68,1.0,-999.0,94,0.00,,,0.02,Wunderground v.1.15,2013-10-10 12:19:00,
2013-10-10 08:24:00,74.9,72.7,29.97,ENE,68,2.0,-999.0,93,0.00,,,0.02,Wunderground v.1.15,2013-10-10 12:24:00,
2013-10-10 08:25:00,74.9,72.7,29.97,ENE,61,1.0,1.0,93,0.00,,,0.02,Wunderground v.1.15,2013-10-10 12:25:00,
2013-10-10 08:29:00,75.3,72.8,29.97,ENE,68,1.0,-999.0,92,0.00,,,0.02,Wunderground v.1.15,2013-10-10 12:29:00,
2013-10-10 08:34:00,75.8,73.0,29.97,East,86,1.0,1.0,91,0.00,,,0.02,Wunderground v.1.15,2013-10-10 12:34:00,
2013-10-10 08:39:00,76.2,73.4,29.98,ENE,68,1.0,-999.0,91,0.00,,,0.02,Wunderground v.1.15,2013-10-10 12:39:00,
2013-10-10 08:44:00,76.5,73.0,29.98,NE,56,1.0,1.0,89,0.00,,,0.02,Wunderground v.1.15,2013-10-10 12:44:00,
2013-10-10 08:49:00,76.8,73.0,29.98,ENE,68,2.0,-999.0,88,0.00,,,0.02,Wunderground v.1.15,2013-10-10 12:49:00,
2013-10-10 08:54:00,77.3,73.8,29.98,ENE,68,1.0,-999.0,89,0.00,,,0.02,Wunderground v.1.15,2013-10-10 12:54:00,
2013-10-10 08:55:00,77.3,73.8,29.98,East,79,2.0,2.0,89,0.00,,,0.02,Wunderground v.1.15,2013-10-10 12:55:00,
2013-10-10 08:59:00,77.8,74.0,29.98,ENE,68,2.0,-999.0,88,0.00,,,0.02,Wunderground v.1.15,2013-10-10 12:59:00,
2013-10-10 09:00:00,77.8,74.0,29.98,ENE,61,1.0,4.0,88,0.00,,,0.02,Wunderground v.1.15,2013-10-10 13:00:00,
2013-10-10 09:04:00,78.0,73.5,29.98,ENE,68,3.0,-999.0,86,0.00,,,0.02,Wunderground v.1.15,2013-10-10 13:04:00,
2013-10-10 09:09:00,78.4,73.9,29.98,ENE,68,2.0,-999.0,86,0.00,,,0.02,Wunderground v.1.15,2013-10-10 13:09:00,
2013-10-10 09:10:00,78.4,73.9,29.98,ENE,60,2.0,2.0,86,0.00,,,0.02,Wunderground v.1.15,2013-10-10 13:10:00,
2013-10-10 09:14:00,78.9,74.0,29.98,ENE,68,1.0,-999.0,85,0.00,,,0.02,Wunderground v.1.15,2013-10-10 13:14:00,
2013-10-10 09:19:00,79.3,74.4,29.99,ENE,71,1.0,1.0,85,0.00,,,0.02,Wunderground v.1.15,2013-10-10 13:19:00,
2013-10-10 09:24:00,79.5,73.9,29.99,ENE,68,3.0,-999.0,83,0.00,,,0.02,Wunderground v.1.15,2013-10-10 13:24:00,
2013-10-10 09:29:00,80.1,74.8,29.99,East,79,2.0,2.0,84,0.00,,,0.02,Wunderground v.1.15,2013-10-10 13:29:00,
2013-10-10 09:34:00,80.7,74.3,29.99,ENE,68,2.0,-999.0,81,0.00,,,0.02,Wunderground v.1.15,2013-10-10 13:34:00,
2013-10-10 09:35:00,80.7,74.3,29.99,ENE,69,1.0,2.0,81,0.00,,,0.02,Wunderground v.1.15,2013-10-10 13:35:00,
2013-10-10 09:39:00,80.8,74.0,29.99,ENE,68,3.0,-999.0,80,0.00,,,0.02,Wunderground v.1.15,2013-10-10 13:39:00,
2013-10-10 09:44:00,80.9,74.5,29.99,East,80,3.0,9.0,81,0.00,,,0.02,Wunderground v.1.15,2013-10-10 13:44:00,
2013-10-10 09:49:00,81.3,74.5,29.99,ENE,68,2.0,-999.0,80,0.00,,,0.02,Wunderground v.1.15,2013-10-10 13:49:00,
2013-10-10 09:54:00,81.6,75.2,29.99,ENE,73,2.0,4.0,81,0.00,,,0.02,Wunderground v.1.15,2013-10-10 13:54:00,
2013-10-10 09:59:00,81.8,74.3,30.00,ENE,68,3.0,-999.0,78,0.00,,,0.02,Wunderground v.1.15,2013-10-10 13:59:00,
2013-10-10 10:00:00,81.8,74.3,30.00,ENE,64,2.0,3.0,78,0.00,,,0.02,Wunderground v.1.15,2013-10-10 14:00:00,
2013-10-10 10:04:00,81.8,73.9,30.00,ENE,68,4.0,-999.0,77,0.00,,,0.02,Wunderground v.1.15,2013-10-10 14:04:00,
2013-10-10 10:09:00,82.0,74.5,30.00,NE,46,4.0,4.0,78,0.00,,,0.02,Wunderground v.1.15,2013-10-10 14:09:00,
2013-10-10 10:14:00,82.3,74.4,30.00,ENE,68,3.0,-999.0,77,0.00,,,0.02,Wunderground v.1.15,2013-10-10 14:14:00,
2013-10-10 10:15:00,82.3,74.4,30.00,ENE,67,3.0,4.0,77,0.00,,,0.02,Wunderground v.1.15,2013-10-10 14:15:00,
2013-10-10 10:19:00,82.6,74.7,30.00,ENE,68,3.0,-999.0,77,0.00,,,0.02,Wunderground v.1.15,2013-10-10 14:19:00,
2013-10-10 10:24:00,83.0,73.9,30.00,ENE,68,3.0,-999.0,74,0.00,,,0.02,Wunderground v.1.15,2013-10-10 14:24:00,
2013-10-10 10:25:00,83.0,73.9,30.00,ENE,64,3.0,7.0,74,0.00,,,0.02,Wunderground v.1.15,2013-10-10 14:25:00,
2013-10-10 10:29:00,82.8,74.5,30.00,ENE,68,4.0,-999.0,76,0.00,,,0.02,Wunderground v.1.15,2013-10-10 14:29:00,
2013-10-10 10:34:00,83.4,74.6,30.00,East,89,4.0,4.0,75,0.00,,,0.02,Wunderground v.1.15,2013-10-10 14:34:00,
2013-10-10 10:39:00,83.6,74.8,30.00,ENE,68,3.0,-999.0,75,0.00,,,0.02,Wunderground v.1.15,2013-10-10 14:39:00,
2013-10-10 10:44:00,83.5,74.3,30.00,ENE,64,4.0,4.0,74,0.00,,,0.02,Wunderground v.1.15,2013-10-10 14:44:00,
2013-10-10 10:49:00,83.3,75.3,30.01,ENE,68,5.0,-999.0,77,0.00,,,0.02,Wunderground v.1.15,2013-10-10 14:49:00,
2013-10-10 10:50:00,83.3,75.3,30.00,ENE,75,5.0,7.0,77,0.00,,,0.02,Wunderground v.1.15,2013-10-10 14:50:00,
2013-10-10 10:54:00,83.3,74.9,30.00,ENE,68,4.0,-999.0,76,0.00,,,0.02,Wunderground v.1.15,2013-10-10 14:54:00,
2013-10-10 10:59:00,83.4,75.0,30.01,ENE,68,4.0,-999.0,76,0.00,,,0.02,Wunderground v.1.15,2013-10-10 14:59:00,
2013-10-10 11:00:00,83.4,75.0,30.00,ENE,68,4.0,4.0,76,0.00,,,0.02,Wunderground v.1.15,2013-10-10 15:00:00,
2013-10-10 11:04:00,83.8,74.6,30.01,ENE,68,3.0,-999.0,74,0.00,,,0.02,Wunderground v.1.15,2013-10-10 15:04:00,
2013-10-10 11:09:00,83.7,73.7,30.00,ENE,72,4.0,5.0,72,0.00,,,0.02,Wunderground v.1.15,2013-10-10 15:09:00,
2013-10-10 11:14:00,84.0,74.8,30.00,ENE,68,5.0,-999.0,74,0.00,,,0.02,Wunderground v.1.15,2013-10-10 15:14:00,
2013-10-10 11:19:00,83.9,75.1,30.00,WNW,297,4.0,4.0,75,0.00,,,0.02,Wunderground v.1.15,2013-10-10 15:19:00,
2013-10-10 11:24:00,84.2,75.0,30.00,ENE,68,3.0,-999.0,74,0.00,,,0.02,Wunderground v.1.15,2013-10-10 15:24:00,
2013-10-10 11:29:00,84.3,74.7,30.00,ENE,68,4.0,-999.0,73,0.00,,,0.02,Wunderground v.1.15,2013-10-10 15:29:00,
2013-10-10 11:30:00,84.3,74.7,30.00,ENE,74,4.0,5.0,73,0.00,,,0.02,Wunderground v.1.15,2013-10-10 15:30:00,
2013-10-10 11:34:00,84.2,75.0,30.00,ENE,68,4.0,-999.0,74,0.00,,,0.02,Wunderground v.1.15,2013-10-10 15:34:00,
2013-10-10 11:39:00,84.2,75.0,30.00,ENE,68,4.0,-999.0,74,0.00,,,0.02,Wunderground v.1.15,2013-10-10 15:39:00,
2013-10-10 11:40:00,84.2,75.0,30.00,ENE,67,5.0,5.0,74,0.00,,,0.02,Wunderground v.1.15,2013-10-10 15:40:00,
2013-10-10 11:44:00,84.2,74.6,30.00,ENE,68,5.0,-999.0,73,0.00,,,0.02,Wunderground v.1.15,2013-10-10 15:44:00,
2013-10-10 11:49:00,84.5,75.3,30.00,NE,55,4.0,4.0,74,0.00,,,0.02,Wunderground v.1.15,2013-10-10 15:49:00,
2013-10-10 11:54:00,84.4,75.2,30.00,ENE,68,4.0,-999.0,74,0.00,,,0.02,Wunderground v.1.15,2013-10-10 15:54:00,
2013-10-10 11:59:00,84.0,74.4,30.00,ENE,68,6.0,-999.0,73,0.00,,,0.02,Wunderground v.1.15,2013-10-10 15:59:00,
2013-10-10 12:00:00,84.0,74.4,30.00,East,79,5.0,7.0,73,0.00,,,0.02,Wunderground v.1.15,2013-10-10 16:00:00,
2013-10-10 12:04:00,84.1,75.3,30.00,ENE,68,5.0,-999.0,75,0.00,,,0.02,Wunderground v.1.15,2013-10-10 16:04:00,
2013-10-10 12:09:00,84.5,75.3,30.00,ENE,61,5.0,5.0,74,0.00,,,0.02,Wunderground v.1.15,2013-10-10 16:09:00,
2013-10-10 12:14:00,84.5,75.3,30.00,ENE,68,4.0,-999.0,74,0.00,,,0.02,Wunderground v.1.15,2013-10-10 16:14:00,
2013-10-10 12:15:00,84.5,75.3,30.00,ENE,61,4.0,5.0,74,0.00,,,0.02,Wunderground v.1.15,2013-10-10 16:15:00,
2013-10-10 12:19:00,84.5,74.9,30.00,ENE,68,4.0,-999.0,73,0.00,,,0.02,Wunderground v.1.15,2013-10-10 16:19:00,
2013-10-10 12:24:00,84.6,75.4,30.00,ENE,64,4.0,4.0,74,0.00,,,0.02,Wunderground v.1.15,2013-10-10 16:24:00,
2013-10-10 12:29:00,84.8,74.8,30.00,ENE,68,4.0,-999.0,72,0.00,,,0.02,Wunderground v.1.15,2013-10-10 16:29:00,
2013-10-10 12:34:00,84.6,75.0,30.00,ESE,104,4.0,4.0,73,0.00,,,0.02,Wunderground v.1.15,2013-10-10 16:34:00,
2013-10-10 12:39:00,84.6,74.6,30.00,ENE,68,5.0,-999.0,72,0.00,,,0.02,Wunderground v.1.15,2013-10-10 16:39:00,
2013-10-10 12:44:00,84.7,75.1,30.00,SW,214,4.0,6.0,73,0.00,,,0.02,Wunderground v.1.15,2013-10-10 16:44:00,
2013-10-10 12:49:00,84.6,74.6,30.00,ENE,68,4.0,-999.0,72,0.00,,,0.02,Wunderground v.1.15,2013-10-10 16:49:00,
2013-10-10 12:50:00,84.6,74.6,30.00,SE,131,4.0,5.0,72,0.00,,,0.02,Wunderground v.1.15,2013-10-10 16:50:00,
2013-10-10 12:54:00,84.9,74.4,30.00,ENE,68,4.0,-999.0,71,0.00,,,0.02,Wunderground v.1.15,2013-10-10 16:54:00,
2013-10-10 12:59:00,84.9,73.6,30.00,East,90,3.0,-999.0,69,0.00,,,0.02,Wunderground v.1.15,2013-10-10 16:59:00,
2013-10-10 13:00:00,84.9,73.6,30.00,East,80,4.0,5.0,69,0.00,,,0.02,Wunderground v.1.15,2013-10-10 17:00:00,
2013-10-10 13:04:00,85.0,73.3,29.99,ENE,68,4.0,-999.0,68,0.00,,,0.02,Wunderground v.1.15,2013-10-10 17:04:00,
2013-10-10 13:09:00,85.0,73.3,29.99,East,80,4.0,4.0,68,0.00,,,0.02,Wunderground v.1.15,2013-10-10 17:09:00,
2013-10-10 13:14:00,85.4,74.1,29.99,ENE,68,3.0,-999.0,69,0.00,,,0.02,Wunderground v.1.15,2013-10-10 17:14:00,
2013-10-10 13:19:00,85.4,74.1,29.99,ENE,64,3.0,3.0,69,0.00,,,0.02,Wunderground v.1.15,2013-10-10 17:19:00,
2013-10-10 13:24:00,85.6,73.8,29.99,ENE,68,3.0,-999.0,68,0.00,,,0.02,Wunderground v.1.15,2013-10-10 17:24:00,
2013-10-10 13:29:00,85.6,74.3,29.99,ENE,68,4.0,-999.0,69,0.00,,,0.02,Wunderground v.1.15,2013-10-10 17:29:00,
2013-10-10 13:30:00,85.6,74.3,29.99,ENE,60,4.0,4.0,69,0.00,,,0.02,Wunderground v.1.15,2013-10-10 17:30:00,
2013-10-10 13:34:00,85.4,74.1,29.98,ENE,68,4.0,-999.0,69,0.00,,,0.02,Wunderground v.1.15,2013-10-10 17:34:00,
2013-10-10 13:39:00,85.4,74.1,29.98,ENE,68,4.0,-999.0,69,0.00,,,0.02,Wunderground v.1.15,2013-10-10 17:39:00,
2013-10-10 13:40:00,85.4,74.1,29.98,ENE,70,4.0,4.0,69,0.00,,,0.02,Wunderground v.1.15,2013-10-10 17:40:00,
2013-10-10 13:44:00,85.2,73.9,29.98,ENE,68,4.0,-999.0,69,0.00,,,0.02,Wunderground v.1.15,2013-10-10 17:44:00,
2013-10-10 13:49:00,85.2,74.3,29.98,ENE,61,4.0,4.0,70,0.00,,,0.02,Wunderground v.1.15,2013-10-10 17:49:00,
2013-10-10 13:54:00,85.1,74.2,29.97,ENE,68,5.0,-999.0,70,0.00,,,0.02,Wunderground v.1.15,2013-10-10 17:54:00,
2013-10-10 13:59:00,84.8,74.3,29.97,ENE,68,5.0,-999.0,71,0.00,,,0.02,Wunderground v.1.15,2013-10-10 17:59:00,
2013-10-10 14:00:00,84.8,74.3,29.97,ENE,57,5.0,5.0,71,0.00,,,0.02,Wunderground v.1.15,2013-10-10 18:00:00,
2013-10-10 14:04:00,84.6,74.2,29.97,ENE,68,6.0,-999.0,71,0.00,,,0.02,Wunderground v.1.15,2013-10-10 18:04:00,
2013-10-10 14:09:00,84.9,74.0,29.96,East,85,5.0,5.0,70,0.00,,,0.02,Wunderground v.1.15,2013-10-10 18:09:00,
2013-10-10 14:14:00,85.2,74.3,29.96,ENE,68,4.0,-999.0,70,0.00,,,0.02,Wunderground v.1.15,2013-10-10 18:14:00,
2013-10-10 14:15:00,85.2,74.3,29.96,ENE,67,4.0,7.0,70,0.00,,,0.02,Wunderground v.1.15,2013-10-10 18:15:00,
2013-10-10 14:19:00,85.0,74.5,29.95,ENE,68,5.0,-999.0,71,0.00,,,0.02,Wunderground v.1.15,2013-10-10 18:19:00,
2013-10-10 14:24:00,85.3,74.8,29.95,NE,53,5.0,6.0,71,0.00,,,0.02,Wunderground v.1.15,2013-10-10 18:24:00,
2013-10-10 14:29:00,85.5,74.6,29.95,ENE,68,5.0,-999.0,70,0.00,,,0.02,Wunderground v.1.15,2013-10-10 18:29:00,
2013-10-10 14:34:00,85.4,74.9,29.95,NE,36,5.0,5.0,71,0.00,,,0.02,Wunderground v.1.15,2013-10-10 18:34:00,
2013-10-10 14:39:00,85.1,74.2,29.94,ENE,68,6.0,-999.0,70,0.00,,,0.02,Wunderground v.1.15,2013-10-10 18:39:00,
2013-10-10 14:44:00,85.0,75.0,29.94,ENE,68,4.0,-999.0,72,0.00,,,0.02,Wunderground v.1.15,2013-10-10 18:44:00,
2013-10-10 14:45:00,85.0,75.0,29.94,ENE,64,5.0,8.0,72,0.00,,,0.02,Wunderground v.1.15,2013-10-10 18:45:00,
2013-10-10 14:49:00,84.8,74.8,29.94,ENE,68,6.0,-999.0,72,0.00,,,0.02,Wunderground v.1.15,2013-10-10 18:49:00,
2013-10-10 14:54:00,84.5,74.5,29.94,East,79,6.0,6.0,72,0.00,,,0.02,Wunderground v.1.15,2013-10-10 18:54:00,
2013-10-10 14:59:00,84.8,74.8,29.94,ENE,68,6.0,-999.0,72,0.00,,,0.02,Wunderground v.1.15,2013-10-10 18:59:00,
2013-10-10 15:00:00,84.8,74.8,29.94,ENE,72,6.0,11.0,72,0.00,,,0.02,Wunderground v.1.15,2013-10-10 19:00:00,
2013-10-10 15:04:00,84.6,74.6,29.94,ENE,68,7.0,-999.0,72,0.00,,,0.02,Wunderground v.1.15,2013-10-10 19:04:00,
2013-10-10 15:09:00,84.8,74.3,29.94,NE,46,6.0,7.0,71,0.00,,,0.02,Wunderground v.1.15,2013-10-10 19:09:00,
2013-10-10 15:14:00,84.9,74.4,29.94,ENE,68,6.0,-999.0,71,0.00,,,0.02,Wunderground v.1.15,2013-10-10 19:14:00,
2013-10-10 15:19:00,84.6,74.2,29.94,East,83,6.0,6.0,71,0.00,,,0.02,Wunderground v.1.15,2013-10-10 19:19:00,
2013-10-10 15:24:00,84.7,74.7,29.94,ENE,68,6.0,-999.0,72,0.00,,,0.02,Wunderground v.1.15,2013-10-10 19:24:00,
2013-10-10 15:25:00,84.7,74.7,29.94,NE,49,7.0,7.0,72,0.00,,,0.02,Wunderground v.1.15,2013-10-10 19:25:00,
2013-10-10 15:29:00,84.6,74.2,29.94,ENE,68,6.0,-999.0,71,0.00,,,0.02,Wunderground v.1.15,2013-10-10 19:29:00,
2013-10-10 15:34:00,84.6,74.2,29.94,ENE,68,5.0,-999.0,71,0.00,,,0.02,Wunderground v.1.15,2013-10-10 19:34:00,
2013-10-10 15:35:00,84.6,74.2,29.94,East,83,6.0,6.0,71,0.00,,,0.02,Wunderground v.1.15,2013-10-10 19:35:00,
2013-10-10 15:39:00,84.8,73.9,29.94,ENE,68,6.0,-999.0,70,0.00,,,0.02,Wunderground v.1.15,2013-10-10 19:39:00,
2013-10-10 15:44:00,84.5,73.6,29.94,ENE,66,6.0,6.0,70,0.00,,,0.02,Wunderground v.1.15,2013-10-10 19:44:00,
2013-10-10 15:49:00,84.8,74.3,29.94,ENE,68,4.0,-999.0,71,0.00,,,0.02,Wunderground v.1.15,2013-10-10 19:49:00,
2013-10-10 15:54:00,84.7,73.8,29.94,ENE,68,5.0,-999.0,70,0.00,,,0.02,Wunderground v.1.15,2013-10-10 19:54:00,
2013-10-10 15:55:00,84.7,73.8,29.94,East,99,5.0,6.0,70,0.00,,,0.02,Wunderground v.1.15,2013-10-10 19:55:00,
2013-10-10 15:59:00,84.8,73.5,29.94,ENE,68,5.0,-999.0,69,0.00,,,0.02,Wunderground v.1.15,2013-10-10 19:59:00,
2013-10-10 16:00:00,84.8,73.5,29.94,East,95,5.0,5.0,69,0.00,,,0.02,Wunderground v.1.15,2013-10-10 20:00:00,
2013-10-10 16:04:00,84.5,72.8,29.94,ENE,68,6.0,-999.0,68,0.00,,,0.02,Wunderground v.1.15,2013-10-10 20:04:00,
2013-10-10 16:09:00,84.7,73.0,29.94,ENE,68,4.0,-999.0,68,0.00,,,0.02,Wunderground v.1.15,2013-10-10 20:09:00,
2013-10-10 16:10:00,84.7,73.0,29.94,East,82,5.0,7.0,68,0.00,,,0.02,Wunderground v.1.15,2013-10-10 20:10:00,
2013-10-10 16:14:00,84.6,72.9,29.94,ENE,68,5.0,-999.0,68,0.00,,,0.02,Wunderground v.1.15,2013-10-10 20:14:00,
2013-10-10 16:19:00,84.6,73.3,29.94,ENE,68,5.0,-999.0,69,0.00,,,0.02,Wunderground v.1.15,2013-10-10 20:19:00,
2013-10-10 16:20:00,84.6,73.3,29.94,ESE,112,6.0,6.0,69,0.00,,,0.02,Wunderground v.1.15,2013-10-10 20:20:00,
2013-10-10 16:24:00,84.5,73.6,29.94,ENE,68,6.0,-999.0,70,0.00,,,0.02,Wunderground v.1.15,2013-10-10 20:24:00,
2013-10-10 16:29:00,84.7,73.0,29.94,ENE,64,5.0,10.0,68,0.00,,,0.02,Wunderground v.1.15,2013-10-10 20:29:00,
2013-10-10 16:34:00,84.3,73.4,29.94,ENE,68,6.0,-999.0,70,0.00,,,0.02,Wunderground v.1.15,2013-10-10 20:34:00,
2013-10-10 16:39:00,84.3,73.9,29.94,East,98,6.0,6.0,71,0.00,,,0.02,Wunderground v.1.15,2013-10-10 20:39:00,
2013-10-10 16:44:00,84.5,73.6,29.94,ENE,68,5.0,-999.0,70,0.00,,,0.02,Wunderground v.1.15,2013-10-10 20:44:00,
2013-10-10 16:45:00,84.5,73.6,29.94,ENE,70,5.0,10.0,70,0.00,,,0.02,Wunderground v.1.15,2013-10-10 20:45:00,
2013-10-10 16:49:00,84.5,73.6,29.93,ENE,68,6.0,-999.0,70,0.00,,,0.02,Wunderground v.1.15,2013-10-10 20:49:00,
2013-10-10 16:54:00,84.2,73.3,29.93,SE,139,6.0,6.0,70,0.00,,,0.02,Wunderground v.1.15,2013-10-10 20:54:00,
2013-10-10 16:59:00,84.1,72.8,29.94,ENE,68,5.0,-999.0,69,0.00,,,0.02,Wunderground v.1.15,2013-10-10 20:59:00,
2013-10-10 17:00:00,84.1,72.8,29.94,East,89,5.0,5.0,69,0.00,,,0.02,Wunderground v.1.15,2013-10-10 21:00:00,
2013-10-10 17:04:00,84.0,72.7,29.94,ENE,68,6.0,-999.0,69,0.00,,,0.02,Wunderground v.1.15,2013-10-10 21:04:00,
2013-10-10 17:09:00,83.8,73.0,29.94,ENE,70,6.0,7.0,70,0.00,,,0.02,Wunderground v.1.15,2013-10-10 21:09:00,
2013-10-10 17:14:00,83.9,73.1,29.94,ENE,68,5.0,-999.0,70,0.00,,,0.02,Wunderground v.1.15,2013-10-10 21:14:00,
2013-10-10 17:19:00,83.7,73.3,29.94,ESE,108,6.0,7.0,71,0.00,,,0.02,Wunderground v.1.15,2013-10-10 21:19:00,
2013-10-10 17:24:00,83.6,73.2,29.94,ENE,68,5.0,-999.0,71,0.00,,,0.02,Wunderground v.1.15,2013-10-10 21:24:00,
2013-10-10 17:29:00,83.7,73.3,29.94,ENE,68,5.0,-999.0,71,0.00,,,0.02,Wunderground v.1.15,2013-10-10 21:29:00,
2013-10-10 17:30:00,83.7,73.3,29.94,ENE,77,6.0,6.0,71,0.00,,,0.02,Wunderground v.1.15,2013-10-10 21:30:00,
2013-10-10 17:34:00,83.8,72.5,29.94,ENE,68,5.0,-999.0,69,0.00,,,0.02,Wunderground v.1.15,2013-10-10 21:34:00,
2013-10-10 17:39:00,83.7,72.4,29.95,ENE,69,5.0,8.0,69,0.00,,,0.02,Wunderground v.1.15,2013-10-10 21:39:00,
2013-10-10 17:44:00,83.5,73.1,29.95,ENE,68,6.0,-999.0,71,0.00,,,0.02,Wunderground v.1.15,2013-10-10 21:44:00,
2013-10-10 17:49:00,83.3,72.9,29.95,ENE,68,6.0,-999.0,71,0.00,,,0.02,Wunderground v.1.15,2013-10-10 21:49:00,
2013-10-10 17:50:00,83.3,72.9,29.95,ENE,64,6.0,6.0,71,0.00,,,0.02,Wunderground v.1.15,2013-10-10 21:50:00,
2013-10-10 17:54:00,83.4,72.6,29.95,ENE,68,4.0,-999.0,70,0.00,,,0.02,Wunderground v.1.15,2013-10-10 21:54:00,
2013-10-10 17:59:00,83.6,73.2,29.95,ENE,68,4.0,-999.0,71,0.00,,,0.02,Wunderground v.1.15,2013-10-10 21:59:00,
2013-10-10 18:00:00,83.6,73.2,29.95,NE,47,4.0,4.0,71,0.00,,,0.02,Wunderground v.1.15,2013-10-10 22:00:00,
2013-10-10 18:04:00,83.4,72.6,29.95,ENE,68,6.0,-999.0,70,0.00,,,0.02,Wunderground v.1.15,2013-10-10 22:04:00,
2013-10-10 18:09:00,83.1,72.3,29.95,ENE,68,6.0,-999.0,70,0.00,,,0.02,Wunderground v.1.15,2013-10-10 22:09:00,
2013-10-10 18:10:00,83.1,72.3,29.95,SE,125,6.0,7.0,70,0.00,,,0.02,Wunderground v.1.15,2013-10-10 22:10:00,
2013-10-10 18:14:00,83.0,72.6,29.95,ENE,68,5.0,-999.0,71,0.00,,,0.02,Wunderground v.1.15,2013-10-10 22:14:00,
2013-10-10 18:19:00,83.1,73.1,29.95,East,94,5.0,5.0,72,0.00,,,0.02,Wunderground v.1.15,2013-10-10 22:19:00,
2013-10-10 18:24:00,83.0,73.0,29.95,ENE,68,5.0,-999.0,72,0.00,,,0.02,Wunderground v.1.15,2013-10-10 22:24:00,
2013-10-10 18:29:00,82.8,72.4,29.95,ENE,58,4.0,12.0,71,0.00,,,0.02,Wunderground v.1.15,2013-10-10 22:29:00,
2013-10-10 18:34:00,82.5,72.6,29.95,ENE,68,5.0,-999.0,72,0.00,,,0.02,Wunderground v.1.15,2013-10-10 22:34:00,
2013-10-10 18:39:00,82.4,72.9,29.95,ENE,68,4.0,-999.0,73,0.00,,,0.02,Wunderground v.1.15,2013-10-10 22:39:00,
2013-10-10 18:40:00,82.4,72.9,29.95,ENE,73,5.0,5.0,73,0.00,,,0.02,Wunderground v.1.15,2013-10-10 22:40:00,
2013-10-10 18:44:00,82.2,72.7,29.95,ENE,68,5.0,-999.0,73,0.00,,,0.02,Wunderground v.1.15,2013-10-10 22:44:00,
2013-10-10 18:49:00,81.9,72.0,29.95,ENE,64,5.0,5.0,72,0.00,,,0.02,Wunderground v.1.15,2013-10-10 22:49:00,
2013-10-10 18:54:00,81.8,71.9,29.95,ENE,68,6.0,-999.0,72,0.00,,,0.02,Wunderground v.1.15,2013-10-10 22:54:00,
2013-10-10 18:59:00,81.7,71.4,29.95,ENE,68,6.0,-999.0,71,0.00,,,0.02,Wunderground v.1.15,2013-10-10 22:59:00,
2013-10-10 19:00:00,81.7,71.4,29.95,NE,36,6.0,6.0,71,0.00,,,0.02,Wunderground v.1.15,2013-10-10 23:00:00,
2013-10-10 19:04:00,81.7,71.4,29.94,ENE,68,5.0,-999.0,71,0.00,,,0.02,Wunderground v.1.15,2013-10-10 23:04:00,
2013-10-10 19:09:00,81.6,71.7,29.95,NE,54,5.0,7.0,72,0.00,,,0.02,Wunderground v.1.15,2013-10-10 23:09:00,
2013-10-10 19:14:00,81.5,71.2,29.95,ENE,68,5.0,-999.0,71,0.00,,,0.02,Wunderground v.1.15,2013-10-10 23:14:00,
2013-10-10 19:19:00,81.5,71.6,29.95,ENE,68,4.0,-999.0,72,0.00,,,0.02,Wunderground v.1.15,2013-10-10 23:19:00,
2013-10-10 19:20:00,81.5,71.6,29.95,ENE,77,5.0,5.0,72,0.00,,,0.02,Wunderground v.1.15,2013-10-10 23:20:00,
2013-10-10 19:24:00,81.5,72.0,29.95,ENE,68,4.0,-999.0,73,0.00,,,0.02,Wunderground v.1.15,2013-10-10 23:24:00,
2013-10-10 19:29:00,81.4,72.3,29.95,ENE,68,5.0,-999.0,74,0.00,,,0.02,Wunderground v.1.15,2013-10-10 23:29:00,
2013-10-10 19:30:00,81.4,72.3,29.95,East,87,4.0,9.0,74,0.00,,,0.02,Wunderground v.1.15,2013-10-10 23:30:00,
2013-10-10 19:34:00,81.4,72.3,29.95,ENE,68,6.0,-999.0,74,0.00,,,0.02,Wunderground v.1.15,2013-10-10 23:34:00,
2013-10-10 19:39:00,81.4,71.9,29.96,ENE,61,6.0,6.0,73,0.00,,,0.02,Wunderground v.1.15,2013-10-10 23:39:00,
2013-10-10 19:44:00,81.4,72.3,29.96,ENE,68,6.0,-999.0,74,0.00,,,0.02,Wunderground v.1.15,2013-10-10 23:44:00,
2013-10-10 19:49:00,81.4,72.3,29.96,ENE,68,4.0,-999.0,74,0.00,,,0.02,Wunderground v.1.15,2013-10-10 23:49:00,
2013-10-10 19:50:00,81.4,72.3,29.96,SSW,195,5.0,5.0,74,0.00,,,0.02,Wunderground v.1.15,2013-10-10 23:50:00,
2013-10-10 19:54:00,81.4,71.9,29.96,ENE,68,6.0,-999.0,73,0.00,,,0.02,Wunderground v.1.15,2013-10-10 23:54:00,
2013-10-10 19:59:00,81.4,72.3,29.96,ENE,68,5.0,-999.0,74,0.00,,,0.02,Wunderground v.1.15,2013-10-10 23:59:00,
2013-10-10 20:00:00,81.4,72.3,29.96,NE,56,6.0,6.0,74,0.00,,,0.02,Wunderground v.1.15,2013-10-11 00:00:00,
2013-10-10 20:04:00,81.5,72.4,29.97,ENE,68,6.0,-999.0,74,0.00,,,0.02,Wunderground v.1.15,2013-10-11 00:04:00,
2013-10-10 20:09:00,81.4,72.3,29.97,ENE,68,6.0,-999.0,74,0.00,,,0.02,Wunderground v.1.15,2013-10-11 00:09:00,
2013-10-10 20:10:00,81.4,72.3,29.97,NE,49,6.0,6.0,74,0.00,,,0.02,Wunderground v.1.15,2013-10-11 00:10:00,
2013-10-10 20:14:00,81.5,72.8,29.97,ENE,68,5.0,-999.0,75,0.00,,,0.02,Wunderground v.1.15,2013-10-11 00:14:00,
2013-10-10 20:19:00,81.5,72.8,29.97,ENE,70,6.0,7.0,75,0.00,,,0.02,Wunderground v.1.15,2013-10-11 00:19:00,
2013-10-10 20:24:00,81.4,72.7,29.97,ENE,68,5.0,-999.0,75,0.00,,,0.02,Wunderground v.1.15,2013-10-11 00:24:00,
2013-10-10 20:29:00,81.3,72.6,29.97,ENE,61,6.0,6.0,75,0.00,,,0.02,Wunderground v.1.15,2013-10-11 00:29:00,
2013-10-10 20:34:00,81.3,72.2,29.97,East,90,5.0,-999.0,74,0.00,,,0.02,Wunderground v.1.15,2013-10-11 00:34:00,
2013-10-10 20:35:00,81.3,72.2,29.97,East,82,6.0,6.0,74,0.00,,,0.02,Wunderground v.1.15,2013-10-11 00:35:00,
2013-10-10 20:39:00,81.3,72.2,29.98,ENE,68,5.0,-999.0,74,0.00,,,0.02,Wunderground v.1.15,2013-10-11 00:39:00,
2013-10-10 20:44:00,81.2,72.1,29.98,ENE,69,5.0,7.0,74,0.00,,,0.02,Wunderground v.1.15,2013-10-11 00:44:00,
2013-10-10 20:49:00,81.2,71.7,29.98,ENE,68,7.0,-999.0,73,0.00,,,0.02,Wunderground v.1.15,2013-10-11 00:49:00,
2013-10-10 20:54:00,81.2,71.7,29.98,ENE,69,6.0,7.0,73,0.00,,,0.02,Wunderground v.1.15,2013-10-11 00:54:00,
2013-10-10 20:59:00,81.1,72.0,29.98,ENE,68,6.0,-999.0,74,0.00,,,0.02,Wunderground v.1.15,2013-10-11 00:59:00,
2013-10-10 21:00:00,81.1,72.0,29.98,ENE,70,6.0,6.0,74,0.00,,,0.02,Wunderground v.1.15,2013-10-11 01:00:00,
2013-10-10 21:04:00,81.1,72.0,29.98,ENE,68,6.0,-999.0,74,0.00,,,0.02,Wunderground v.1.15,2013-10-11 01:04:00,
2013-10-10 21:09:00,81.1,72.0,29.98,ENE,74,6.0,6.0,74,0.00,,,0.02,Wunderground v.1.15,2013-10-11 01:09:00,
2013-10-10 21:14:00,81.0,71.9,29.98,ENE,68,5.0,-999.0,74,0.00,,,0.02,Wunderground v.1.15,2013-10-11 01:14:00,
2013-10-10 21:15:00,81.0,71.9,29.98,ENE,70,5.0,6.0,74,0.00,,,0.02,Wunderground v.1.15,2013-10-11 01:15:00,
2013-10-10 21:19:00,81.0,71.9,29.98,ENE,68,5.0,-999.0,74,0.00,,,0.02,Wunderground v.1.15,2013-10-11 01:19:00,
2013-10-10 21:24:00,80.9,71.8,29.98,ENE,68,6.0,-999.0,74,0.00,,,0.02,Wunderground v.1.15,2013-10-11 01:24:00,
2013-10-10 21:25:00,80.9,71.8,29.98,ENE,72,6.0,6.0,74,0.00,,,0.02,Wunderground v.1.15,2013-10-11 01:25:00,
2013-10-10 21:29:00,80.8,71.7,29.98,ENE,68,6.0,-999.0,74,0.00,,,0.02,Wunderground v.1.15,2013-10-11 01:29:00,
2013-10-10 21:34:00,80.8,71.3,29.98,ENE,64,5.0,11.0,73,0.00,,,0.02,Wunderground v.1.15,2013-10-11 01:34:00,
2013-10-10 21:39:00,80.8,71.3,29.99,ENE,68,5.0,-999.0,73,0.00,,,0.02,Wunderground v.1.15,2013-10-11 01:39:00,
2013-10-10 21:44:00,80.7,71.2,29.99,ENE,68,4.0,-999.0,73,0.00,,,0.02,Wunderground v.1.15,2013-10-11 01:44:00,
2013-10-10 21:45:00,80.7,71.2,29.99,East,96,5.0,6.0,73,0.00,,,0.02,Wunderground v.1.15,2013-10-11 01:45:00,
2013-10-10 21:49:00,80.7,71.2,29.99,ENE,68,5.0,-999.0,73,0.00,,,0.02,Wunderground v.1.15,2013-10-11 01:49:00,
2013-10-10 21:54:00,80.7,70.8,29.99,ENE,61,5.0,6.0,72,0.00,,,0.02,Wunderground v.1.15,2013-10-11 01:54:00,
2013-10-10 21:59:00,80.7,70.8,29.99,ENE,68,5.0,-999.0,72,0.00,,,0.02,Wunderground v.1.15,2013-10-11 01:59:00,
2013-10-10 22:00:00,80.7,70.8,29.99,ENE,58,5.0,5.0,72,0.00,,,0.02,Wunderground v.1.15,2013-10-11 02:00:00,
2013-10-10 22:04:00,80.7,70.4,29.99,ENE,68,6.0,-999.0,71,0.00,,,0.02,Wunderground v.1.15,2013-10-11 02:04:00,
2013-10-10 22:09:00,80.7,70.8,29.99,NE,54,5.0,5.0,72,0.00,,,0.02,Wunderground v.1.15,2013-10-11 02:09:00,
2013-10-10 22:14:00,80.6,71.1,29.99,ENE,68,3.0,-999.0,73,0.00,,,0.02,Wunderground v.1.15,2013-10-11 02:14:00,
2013-10-10 22:19:00,80.6,71.1,29.99,ENE,71,4.0,4.0,73,0.00,,,0.02,Wunderground v.1.15,2013-10-11 02:19:00,
2013-10-10 22:24:00,80.5,71.0,29.99,ENE,68,4.0,-999.0,73,0.00,,,0.02,Wunderground v.1.15,2013-10-11 02:24:00,
2013-10-10 22:29:00,80.5,71.4,29.99,ENE,68,3.0,-999.0,74,0.00,,,0.02,Wunderground v.1.15,2013-10-11 02:29:00,
2013-10-10 22:30:00,80.5,71.4,29.99,ENE,72,3.0,5.0,74,0.00,,,0.02,Wunderground v.1.15,2013-10-11 02:30:00,
2013-10-10 22:34:00,80.4,71.3,29.99,ENE,68,3.0,-999.0,74,0.00,,,0.02,Wunderground v.1.15,2013-10-11 02:34:00,
2013-10-10 22:39:00,80.3,70.9,29.99,ENE,67,4.0,4.0,73,0.00,,,0.02,Wunderground v.1.15,2013-10-11 02:39:00,
2013-10-10 22:44:00,80.3,70.4,29.99,ENE,68,3.0,-999.0,72,0.00,,,0.02,Wunderground v.1.15,2013-10-11 02:44:00,
2013-10-10 22:49:00,80.3,69.6,29.99,ENE,74,4.0,4.0,70,0.00,,,0.02,Wunderground v.1.15,2013-10-11 02:49:00,
2013-10-10 22:54:00,80.3,70.0,29.99,ENE,69,4.0,6.0,71,0.00,,,0.02,Wunderground v.1.15,2013-10-11 02:54:00,
2013-10-10 22:59:00,80.3,70.4,29.99,ENE,68,4.0,-999.0,72,0.00,,,0.02,Wunderground v.1.15,2013-10-11 02:59:00,
2013-10-10 23:00:00,80.3,70.4,29.99,ESE,106,4.0,4.0,72,0.00,,,0.02,Wunderground v.1.15,2013-10-11 03:00:00,
2013-10-10 23:04:00,80.2,70.4,29.99,ENE,68,3.0,-999.0,72,0.00,,,0.02,Wunderground v.1.15,2013-10-11 03:04:00,
2013-10-10 23:09:00,80.2,70.4,29.99,ENE,75,4.0,4.0,72,0.00,,,0.02,Wunderground v.1.15,2013-10-11 03:09:00,
2013-10-10 23:14:00,80.1,70.3,29.99,ENE,68,4.0,-999.0,72,0.00,,,0.02,Wunderground v.1.15,2013-10-11 03:14:00,
2013-10-10 23:19:00,80.0,69.7,29.99,ENE,68,3.0,-999.0,71,0.00,,,0.02,Wunderground v.1.15,2013-10-11 03:19:00,
2013-10-10 23:20:00,80.0,69.7,29.99,ENE,66,4.0,4.0,71,0.00,,,0.02,Wunderground v.1.15,2013-10-11 03:20:00,
2013-10-10 23:24:00,80.0,70.2,29.99,ENE,68,3.0,-999.0,72,0.00,,,0.02,Wunderground v.1.15,2013-10-11 03:24:00,
2013-10-10 23:29:00,80.0,70.6,29.98,ENE,68,3.0,3.0,73,0.00,,,0.02,Wunderground v.1.15,2013-10-11 03:29:00,
2013-10-10 23:34:00,79.9,70.5,29.98,ENE,68,4.0,-999.0,73,0.00,,,0.02,Wunderground v.1.15,2013-10-11 03:34:00,
2013-10-10 23:39:00,79.8,70.8,29.98,East,80,4.0,4.0,74,0.00,,,0.02,Wunderground v.1.15,2013-10-11 03:39:00,
2013-10-10 23:44:00,79.8,70.8,29.98,ENE,68,2.0,-999.0,74,0.00,,,0.02,Wunderground v.1.15,2013-10-11 03:44:00,
2013-10-10 23:45:00,79.8,70.8,29.98,East,81,3.0,4.0,74,0.00,,,0.02,Wunderground v.1.15,2013-10-11 03:45:00,
2013-10-10 23:49:00,79.6,71.0,29.98,ENE,68,2.0,-999.0,75,0.00,,,0.02,Wunderground v.1.15,2013-10-11 03:49:00,
2013-10-10 23:54:00,79.6,70.6,29.98,ENE,75,3.0,4.0,74,0.00,,,0.02,Wunderground v.1.15,2013-10-11 03:54:00,
2013-10-10 23:59:00,79.6,70.6,29.98,ENE,68,3.0,-999.0,74,0.00,,,0.02,Wunderground v.1.15,2013-10-11 03:59:00,